Time;durP1;ratioP1;P1;durP2;ratioP2;P2;SDS_P1;SDS_P2;PMS_P1;PMS_P2;Temp;Humidity;BMP_temperature;BMP_pressure;BME280_temperature;BME280_humidity;BME280_pressure;Samples;Min_cycle;Max_cycle;Signal;HPM_P1;HPM_P2
2022/11/08 07:25:10;;;;;;;4.82;1.30;;;;;;;9.18;74.20;96312.94;2100747;27;20563;-65
2022/11/08 07:26:12;;;;;;;4.07;1.40;;;;;;;9.78;72.22;96315.41;2096434;28;20664;-66
2022/11/08 07:27:14;;;;;;;2.58;1.20;;;;;;;10.12;70.97;96313.81;2077457;28;20201;-66
2022/11/08 07:34:14;;;;;;;3.77;1.30;;;;;;;9.44;72.64;96316.97;2055162;27;1492740;-68
2022/11/08 07:35:15;;;;;;;5.03;2.25;;;;;;;9.42;72.43;96320.56;2107444;28;20660;-68
2022/11/08 07:43:52;;;;;;;7.93;1.60;;;;;;;9.59;72.58;96311.97;2109522;27;20559;-65
2022/11/08 07:44:54;;;;;;;3.08;1.48;;;;;;;10.02;71.17;96311.72;2106605;28;20297;-66
2022/11/08 07:45:58;;;;;;;3.80;1.73;;;;;;;10.56;69.54;96296.06;2099408;28;20199;-66
2022/11/08 07:46:59;;;;;;;5.13;1.75;;;;;;;11.05;67.94;96304.03;2087232;28;20353;-65
2022/11/08 07:48:04;;;;;;;9.80;1.60;;;;;;;11.76;65.53;96288.94;2081308;28;20231;-66
2022/11/08 07:49:11;;;;;;;3.53;1.77;;;;;;;11.98;64.15;96304.31;2082124;28;20782;-66
2022/11/08 07:50:13;;;;;;;6.18;2.45;;;;;;;11.82;64.16;96295.59;2089696;28;20283;-66
2022/11/08 07:51:18;;;;;;;3.10;1.48;;;;;;;12.12;63.40;96289.63;2089480;28;20196;-66
2022/11/08 07:52:19;;;;;;;3.90;1.60;;;;;;;12.81;61.42;96295.25;2090319;28;20223;-66
2022/11/08 07:53:21;;;;;;;1.83;1.10;;;;;;;13.48;60.25;96298.22;2082240;28;20202;-66
2022/11/08 07:54:23;;;;;;;3.22;1.40;;;;;;;14.16;58.99;96291.34;2083784;28;20237;-66
2022/11/08 07:55:25;;;;;;;3.05;1.50;;;;;;;14.01;57.46;96269.53;2086896;28;20234;-66
2022/11/08 07:56:26;;;;;;;8.82;1.60;;;;;;;14.52;56.58;96300.41;2088565;28;20230;-66
2022/11/08 07:57:28;;;;;;;5.03;1.27;;;;;;;14.74;55.92;96301.63;2088454;28;20283;-66
2022/11/08 07:58:29;;;;;;;7.07;1.95;;;;;;;14.44;56.70;96313.19;2089360;28;20200;-66
2022/11/08 07:59:31;;;;;;;2.33;1.58;;;;;;;14.96;55.82;96313.31;2089732;28;20242;-66
2022/11/08 08:00:37;;;;;;;8.90;2.10;;;;;;;15.20;54.84;96255.59;2098472;28;20238;-67
2022/11/08 08:01:38;;;;;;;4.05;1.80;;;;;;;15.65;53.22;96308.53;2097636;28;20223;-67
2022/11/08 08:02:40;;;;;;;2.67;1.70;;;;;;;15.59;53.56;96311.63;2092182;28;20334;-67
2022/11/08 08:03:42;;;;;;;6.18;1.70;;;;;;;15.57;53.96;96310.06;2086696;28;20261;-67
2022/11/08 08:04:43;;;;;;;3.75;1.50;;;;;;;15.95;53.11;96317.06;2094571;28;20231;-66
2022/11/08 08:05:52;;;;;;;3.42;1.30;;;;;;;15.46;53.56;96297.63;2093793;28;20250;-67
2022/11/08 08:07:00;;;;;;;7.38;1.60;;;;;;;14.42;56.09;96311.59;2087835;28;20238;-67
2022/11/08 08:08:02;;;;;;;3.30;1.45;;;;;;;14.03;56.97;96306.22;2090620;28;20508;-66
2022/11/08 08:09:04;;;;;;;5.13;1.52;;;;;;;14.08;57.47;96319.03;2090884;28;20870;-68
2022/11/08 08:10:06;;;;;;;2.83;1.55;;;;;;;15.09;55.50;96315.97;2088031;28;20662;-69
2022/11/08 08:11:08;;;;;;;5.30;1.75;;;;;;;15.31;54.33;96317.94;2090071;28;20199;-68
2022/11/08 08:12:09;;;;;;;4.30;1.42;;;;;;;15.11;54.52;96309.66;2089145;28;20621;-69
2022/11/08 08:13:11;;;;;;;3.50;1.55;;;;;;;15.63;53.94;96313.09;2089721;28;20314;-69
2022/11/08 08:14:12;;;;;;;2.05;1.20;;;;;;;15.18;54.58;96315.31;2090568;28;20769;-69
2022/11/08 08:15:14;;;;;;;2.03;1.20;;;;;;;15.02;55.58;96316.38;2086583;28;20414;-69
2022/11/08 08:16:15;;;;;;;3.55;1.40;;;;;;;14.88;55.19;96313.00;2086895;28;20226;-69
2022/11/08 08:17:17;;;;;;;7.70;1.70;;;;;;;14.21;57.32;96318.13;2086452;28;20246;-69
2022/11/08 08:18:20;;;;;;;3.08;1.60;;;;;;;13.88;58.22;96295.72;2088459;28;20235;-69
2022/11/08 08:19:22;;;;;;;4.38;1.40;;;;;;;13.96;58.52;96323.28;2089284;28;20200;-69
2022/11/08 08:20:23;;;;;;;7.80;1.90;;;;;;;13.62;58.05;96314.91;2088209;28;20235;-69
2022/11/08 08:21:24;;;;;;;9.10;2.70;;;;;;;13.24;59.08;96316.28;2089859;28;20205;-69
2022/11/08 08:22:29;;;;;;;5.25;1.23;;;;;;;12.71;60.74;96316.78;2088510;28;20246;-68
2022/11/08 08:23:30;;;;;;;6.10;1.58;;;;;;;12.47;61.61;96321.66;2088504;28;20276;-69
2022/11/08 08:24:32;;;;;;;5.15;1.33;;;;;;;12.27;61.71;96322.78;2086707;28;20671;-68
2022/11/08 08:25:33;;;;;;;1.88;1.00;;;;;;;11.79;63.45;96314.94;2089230;28;20807;-69
2022/11/08 08:26:35;;;;;;;6.53;1.27;;;;;;;11.69;64.66;96322.41;2088180;28;20346;-69
2022/11/08 08:27:53;;;;;;;6.30;1.58;;;;;;;11.57;64.20;96328.34;2088847;28;20244;-68
2022/11/08 08:28:54;;;;;;;3.65;1.35;;;;;;;11.68;64.67;96327.75;2090174;28;20227;-68
2022/11/08 08:29:55;;;;;;;3.72;1.48;;;;;;;11.66;64.79;96321.78;2091185;28;20232;-68
2022/11/08 08:30:57;;;;;;;5.22;1.70;;;;;;;11.62;65.01;96335.91;2090726;28;20197;-69
2022/11/08 08:31:59;;;;;;;3.97;2.00;;;;;;;11.32;65.19;96289.59;2085350;28;20925;-69
2022/11/08 08:33:03;;;;;;;3.95;1.70;;;;;;;11.36;66.07;96319.84;2086186;28;20204;-69
2022/11/08 08:34:24;;;;;;;5.65;2.03;;;;;;;11.30;66.06;96310.59;2091307;28;20693;-68
2022/11/08 08:35:26;;;;;;;5.22;1.48;;;;;;;11.19;66.36;96332.03;2082154;28;20223;-68
2022/11/08 08:36:27;;;;;;;3.25;1.55;;;;;;;10.98;67.00;96322.72;2081004;28;20386;-69
2022/11/08 08:37:28;;;;;;;3.10;1.48;;;;;;;10.84;66.57;96318.19;2086426;28;20231;-68
2022/11/08 08:38:31;;;;;;;7.55;1.33;;;;;;;10.78;66.99;96319.34;2082036;28;20290;-69
2022/11/08 08:39:33;;;;;;;5.88;1.65;;;;;;;10.81;67.26;96323.59;2081522;28;20230;-68
2022/11/08 08:40:34;;;;;;;9.07;1.60;;;;;;;10.92;67.15;96318.66;2081441;28;20292;-69
2022/11/08 08:41:35;;;;;;;3.55;1.42;;;;;;;10.85;66.82;96315.50;2080910;28;20767;-68
2022/11/08 08:42:37;;;;;;;4.18;1.70;;;;;;;11.05;67.04;96332.75;2088389;28;20284;-69
2022/11/08 08:43:38;;;;;;;2.13;1.33;;;;;;;11.02;66.64;96332.06;2088419;28;20279;-68
2022/11/08 08:44:40;;;;;;;9.20;1.90;;;;;;;11.03;67.34;96334.59;2086295;28;20197;-69
2022/11/08 08:57:57;;;;;;;3.20;1.17;;;;;;;11.48;65.45;96340.13;2048736;27;1607643;-68
2022/11/08 08:59:02;;;;;;;4.95;1.50;;;;;;;11.41;65.22;96328.31;2106881;28;20678;-68
2022/11/08 09:00:24;;;;;;;4.93;1.30;;;;;;;11.28;65.85;96336.78;2107574;28;20211;-69
2022/11/08 09:01:46;;;;;;;3.28;1.20;;;;;;;11.08;66.25;96339.59;2096274;28;20239;-68
2022/11/08 09:02:47;;;;;;;4.82;1.75;;;;;;;11.09;66.35;96342.13;2093165;28;20311;-68
2022/11/08 09:03:49;;;;;;;4.50;1.60;;;;;;;11.14;66.64;96341.91;2092874;28;20224;-69
2022/11/08 09:04:50;;;;;;;4.35;1.42;;;;;;;11.09;66.79;96347.34;2093734;28;20203;-68
2022/11/08 09:05:52;;;;;;;2.92;1.65;;;;;;;11.08;66.93;96342.22;2093323;28;20238;-68
2022/11/08 09:06:53;;;;;;;3.30;1.55;;;;;;;11.02;66.85;96346.00;2094407;28;20765;-68
2022/11/08 09:07:55;;;;;;;3.50;1.02;;;;;;;10.97;66.76;96342.78;2096654;28;20220;-68
2022/11/08 09:08:57;;;;;;;6.80;1.67;;;;;;;11.07;67.09;96338.75;2092651;28;20206;-68
2022/11/08 09:09:58;;;;;;;5.20;1.42;;;;;;;11.24;66.71;96350.13;2094914;28;20284;-69
2022/11/08 09:11:00;;;;;;;6.45;1.40;;;;;;;11.38;66.44;96347.59;2088251;28;20287;-69
2022/11/08 09:12:02;;;;;;;4.82;2.17;;;;;;;11.40;65.99;96329.22;2093583;28;20239;-69
2022/11/08 09:13:04;;;;;;;3.85;1.70;;;;;;;11.33;66.04;96336.56;2093999;28;20238;-68
2022/11/08 09:14:08;;;;;;;3.10;1.42;;;;;;;11.42;66.06;96346.50;2094511;28;20624;-69
2022/11/08 09:15:10;;;;;;;13.40;1.65;;;;;;;11.41;66.15;96349.22;2094372;28;20287;-69
2022/11/08 09:16:13;;;;;;;4.13;1.27;;;;;;;11.39;66.80;96359.75;2093844;28;20292;-69
2022/11/08 09:17:15;;;;;;;9.00;2.05;;;;;;;11.25;67.62;96351.81;2094729;28;20472;-69
2022/11/08 09:18:17;;;;;;;4.43;1.73;;;;;;;11.16;67.78;96333.97;2093245;28;20288;-69
2022/11/08 09:19:19;;;;;;;8.32;1.40;;;;;;;11.14;67.83;96357.56;2093885;28;20253;-69
2022/11/08 09:20:21;;;;;;;3.75;1.50;;;;;;;11.17;67.59;96341.72;2093954;28;20731;-69
2022/11/08 09:21:22;;;;;;;3.85;1.40;;;;;;;11.21;67.52;96347.63;2093760;28;20207;-69
2022/11/08 09:22:24;;;;;;;3.22;1.88;;;;;;;11.21;67.86;96358.97;2094751;28;20213;-69
2022/11/08 09:23:25;;;;;;;4.15;1.52;;;;;;;11.10;67.88;96359.50;2092910;28;20587;-69
2022/11/08 09:24:26;;;;;;;4.60;2.00;;;;;;;11.28;67.70;96362.91;2094306;28;20240;-69
2022/11/08 09:25:28;;;;;;;4.03;1.60;;;;;;;11.27;67.66;96368.22;2092627;28;20769;-69
2022/11/08 09:26:30;;;;;;;5.80;1.70;;;;;;;11.16;67.74;96365.31;2091469;28;20245;-69
2022/11/08 09:27:31;;;;;;;4.32;1.60;;;;;;;11.35;67.47;96365.22;2091186;28;20599;-69
2022/11/08 09:28:35;;;;;;;3.13;1.45;;;;;;;11.38;66.96;96344.16;2091504;28;20647;-69
2022/11/08 09:29:36;;;;;;;9.52;1.60;;;;;;;11.69;66.04;96359.03;2093165;28;20239;-69
2022/11/08 09:30:37;;;;;;;6.57;1.45;;;;;;;11.97;65.13;96369.84;2093031;28;20604;-69
2022/11/08 09:31:39;;;;;;;11.93;1.40;;;;;;;11.92;64.00;96349.97;2094133;28;20289;-69
2022/11/08 09:32:40;;;;;;;5.15;1.58;;;;;;;11.95;64.45;96367.28;2093404;28;20197;-69
2022/11/08 09:34:02;;;;;;;3.00;1.40;;;;;;;11.82;65.30;96371.47;2091989;28;20202;-69
2022/11/08 09:35:08;;;;;;;6.15;1.95;;;;;;;11.70;65.87;96376.44;2093031;28;20198;-69
2022/11/08 09:36:12;;;;;;;4.80;1.90;;;;;;;11.94;65.34;96370.81;2092332;28;20201;-69
2022/11/08 09:37:13;;;;;;;4.95;1.80;;;;;;;12.27;64.31;96376.94;2091780;28;20239;-69
2022/11/08 09:38:16;;;;;;;5.22;1.63;;;;;;;12.46;63.58;96371.50;2093332;28;20259;-69
2022/11/08 09:39:18;;;;;;;5.13;1.70;;;;;;;12.87;63.28;96379.63;2092090;28;20199;-69
2022/11/08 09:40:31;;;;;;;3.55;1.80;;;;;;;13.50;60.30;96375.06;2093049;28;20316;-69
2022/11/08 09:41:35;;;;;;;2.60;1.38;;;;;;;13.46;59.94;96373.56;2093183;28;20215;-69
2022/11/08 09:42:53;;;;;;;6.38;1.75;;;;;;;13.09;61.34;96367.00;2093290;28;20234;-69
2022/11/08 09:44:46;;;;;;;4.45;1.63;;;;;;;12.66;62.63;96381.69;2092634;28;20641;-69
2022/11/08 09:45:52;;;;;;;5.72;1.70;;;;;;;12.43;63.48;96379.53;2062957;28;20669;-65
2022/11/08 09:47:00;;;;;;;5.13;1.85;;;;;;;12.31;64.17;96378.44;2089422;28;20222;-65
2022/11/08 09:48:05;;;;;;;6.00;1.75;;;;;;;12.35;63.73;96375.53;2090359;28;20576;-65
2022/11/08 09:49:15;;;;;;;3.97;1.75;;;;;;;12.24;64.17;96381.41;2092894;28;20287;-64
2022/11/08 09:50:24;;;;;;;3.67;1.60;;;;;;;12.33;64.54;96374.81;2092164;28;20224;-64
2022/11/08 09:51:28;;;;;;;5.50;1.40;;;;;;;12.40;63.91;96378.78;2093152;28;20677;-65
2022/11/08 09:52:32;;;;;;;5.90;1.30;;;;;;;12.23;64.32;96373.63;2093667;28;20242;-65
2022/11/08 09:53:46;;;;;;;4.18;1.60;;;;;;;12.30;63.99;96371.50;2092555;28;20232;-64
2022/11/08 09:54:49;;;;;;;10.90;2.03;;;;;;;12.41;63.27;96367.34;2092118;28;20194;-65
2022/11/08 09:56:00;;;;;;;3.42;1.55;;;;;;;12.55;63.12;96363.13;2091397;28;20244;-64
2022/11/08 09:57:04;;;;;;;2.20;1.60;;;;;;;12.60;63.78;96368.09;2092044;28;20298;-65
2022/11/08 09:58:15;;;;;;;4.40;1.77;;;;;;;12.78;63.29;96374.06;2099917;28;20247;-65
2022/11/08 09:59:17;;;;;;;9.10;2.05;;;;;;;12.64;63.45;96369.59;2099170;28;20226;-64
2022/11/08 10:00:18;;;;;;;5.38;1.23;;;;;;;12.65;63.50;96363.44;2100160;28;20869;-64
2022/11/08 10:01:22;;;;;;;6.28;2.67;;;;;;;13.06;62.37;96357.56;2102045;28;20440;-65
2022/11/08 10:02:27;;;;;;;3.83;1.30;;;;;;;14.15;59.29;96357.09;2098988;28;20198;-64
2022/11/08 10:03:29;;;;;;;4.90;1.85;;;;;;;14.23;58.60;96353.97;2097852;28;20281;-64
2022/11/08 10:04:32;;;;;;;4.05;1.27;;;;;;;13.87;58.93;96364.91;2091527;28;20314;-64
2022/11/08 10:05:41;;;;;;;4.55;1.52;;;;;;;13.82;59.70;96358.28;2092412;28;20227;-64
2022/11/08 10:07:06;;;;;;;2.15;1.25;;;;;;;14.62;57.65;96363.69;2100834;28;20317;-64
2022/11/08 10:08:38;;;;;;;4.95;1.55;;;;;;;15.21;56.15;96366.88;2102811;28;20198;-64
2022/11/08 10:09:52;;;;;;;3.42;1.40;;;;;;;14.82;57.13;96365.03;2093945;28;20195;-64
2022/11/08 10:11:15;;;;;;;4.25;1.60;;;;;;;14.07;58.16;96361.97;2095154;28;20227;-65
2022/11/08 10:12:24;;;;;;;5.72;2.13;;;;;;;14.07;58.47;96361.97;2091963;28;20231;-65
2022/11/08 10:13:30;;;;;;;3.92;1.50;;;;;;;14.28;57.75;96362.41;2091537;28;20235;-65
2022/11/08 10:14:54;;;;;;;4.07;1.60;;;;;;;15.62;54.69;96361.41;2097269;28;20783;-65
2022/11/08 10:16:05;;;;;;;3.22;1.30;;;;;;;15.82;54.03;96357.41;2096972;28;20369;-65
2022/11/08 10:17:12;;;;;;;2.28;1.10;;;;;;;16.32;53.34;96357.38;2086700;28;20228;-65
2022/11/08 10:18:43;;;;;;;3.45;1.55;;;;;;;18.20;49.34;96351.22;2088252;28;20259;-67
2022/11/08 10:20:06;;;;;;;5.93;1.35;;;;;;;17.17;50.72;96347.69;2055956;28;20316;-65
2022/11/08 10:21:20;;;;;;;2.88;1.15;;;;;;;17.82;49.70;96345.31;2066232;28;20223;-65
2022/11/08 10:22:34;;;;;;;2.00;1.20;;;;;;;18.94;47.65;96342.56;2096078;28;20257;-64
2022/11/08 10:24:01;;;;;;;3.20;1.13;;;;;;;18.30;47.96;96338.94;2096226;28;20663;-62
2022/11/08 10:25:18;;;;;;;3.08;1.20;;;;;;;16.19;51.67;96343.41;2095418;28;20199;-63
2022/11/08 10:26:28;;;;;;;1.90;0.93;;;;;;;15.98;52.88;96343.16;2096283;28;20202;-63
2022/11/08 10:27:36;;;;;;;5.88;1.30;;;;;;;16.14;53.23;96335.00;2096678;28;20657;-63
2022/11/08 10:28:49;;;;;;;3.50;1.40;;;;;;;16.26;52.12;96334.09;2096005;28;20196;-63
2022/11/08 10:29:59;;;;;;;2.42;1.17;;;;;;;15.25;54.23;96285.03;2094430;28;20199;-63
2022/11/08 10:31:01;;;;;;;2.38;1.00;;;;;;;15.29;55.25;96322.50;2096372;28;20275;-64
2022/11/08 10:32:13;;;;;;;4.38;1.30;;;;;;;15.46;55.18;96330.03;2094940;28;20232;-64
2022/11/08 10:33:20;;;;;;;4.65;1.10;;;;;;;15.58;55.30;96333.63;2095863;28;20654;-66
2022/11/08 10:34:26;;;;;;;5.00;1.25;;;;;;;15.68;53.85;96339.09;2094821;28;20257;-65
2022/11/08 10:35:40;;;;;;;2.85;1.25;;;;;;;15.85;53.28;96342.38;2096372;28;20685;-63
2022/11/08 10:36:47;;;;;;;3.95;1.23;;;;;;;16.82;51.27;96335.31;2094019;28;20773;-63
2022/11/08 10:37:50;;;;;;;1.67;1.00;;;;;;;17.89;49.44;96335.97;2094230;28;20733;-63
2022/11/08 10:39:10;;;;;;;9.30;1.38;;;;;;;18.26;46.89;96332.22;2094890;28;20187;-63
2022/11/08 10:40:28;;;;;;;4.78;1.08;;;;;;;18.58;46.87;96334.88;2093435;28;20290;-63
2022/11/08 10:41:48;;;;;;;3.35;1.35;;;;;;;19.87;44.97;96327.66;2095097;28;20224;-63
2022/11/08 10:43:05;;;;;;;5.00;1.33;;;;;;;20.77;43.50;96321.53;2096365;28;20195;-63
2022/11/08 10:44:23;;;;;;;3.65;1.30;;;;;;;21.07;43.19;96325.84;2095479;28;20215;-63
2022/11/08 10:45:24;;;;;;;3.22;1.20;;;;;;;20.83;41.72;96332.41;2095482;28;20324;-63
2022/11/08 10:46:43;;;;;;;3.42;1.45;;;;;;;21.30;42.44;96321.03;2095474;28;20251;-63
2022/11/08 10:47:45;;;;;;;3.80;1.60;;;;;;;21.23;42.11;96324.41;2094774;28;20298;-64
2022/11/08 10:48:47;;;;;;;4.20;1.60;;;;;;;20.79;43.42;96327.53;2096274;28;20223;-63
2022/11/08 10:49:48;;;;;;;3.17;0.93;;;;;;;20.73;42.11;96320.97;2095784;28;20215;-64
2022/11/08 10:50:51;;;;;;;4.30;1.40;;;;;;;18.96;45.09;96315.97;2094785;28;20733;-64
2022/11/08 10:51:55;;;;;;;2.70;1.02;;;;;;;19.48;44.34;96321.31;2095757;28;20215;-63
2022/11/08 10:52:59;;;;;;;4.07;1.52;;;;;;;19.05;44.97;96318.69;2096173;28;20223;-64
2022/11/08 10:54:01;;;;;;;3.58;1.15;;;;;;;17.82;46.28;96313.63;2093134;28;20341;-65
2022/11/08 10:55:06;;;;;;;2.13;1.00;;;;;;;17.14;48.30;96319.72;2095110;28;20762;-63
2022/11/08 10:56:08;;;;;;;2.92;1.10;;;;;;;17.08;48.04;96320.19;2094902;28;20290;-63
2022/11/08 10:57:13;;;;;;;3.97;1.25;;;;;;;17.86;47.01;96316.88;2102518;28;20269;-64
2022/11/08 10:58:31;;;;;;;3.45;1.00;;;;;;;17.48;47.78;96321.56;2103889;28;20257;-63
2022/11/08 10:59:33;;;;;;;1.77;1.00;;;;;;;17.34;48.00;96309.44;2104779;28;20281;-63
2022/11/08 11:00:34;;;;;;;2.88;1.10;;;;;;;16.64;47.97;96298.00;2113290;28;20863;-63
2022/11/08 11:01:48;;;;;;;4.40;1.50;;;;;;;16.93;48.71;96309.00;2112372;28;20268;-64
2022/11/08 11:02:58;;;;;;;2.22;0.93;;;;;;;17.74;47.33;96308.13;2102431;28;20667;-64
2022/11/08 11:04:23;;;;;;;7.80;0.85;;;;;;;18.10;46.48;96311.47;2100635;28;20237;-64
2022/11/08 11:05:39;;;;;;;2.78;1.20;;;;;;;19.87;42.55;96302.94;2104787;28;20195;-64
2022/11/08 11:06:41;;;;;;;5.57;1.08;;;;;;;20.74;41.48;96309.38;2103366;28;20238;-64
2022/11/08 11:07:57;;;;;;;2.20;1.10;;;;;;;21.72;39.87;96285.28;2103451;28;20261;-64
2022/11/08 11:09:19;;;;;;;3.22;1.00;;;;;;;21.54;40.53;96303.78;2103164;28;20244;-63
2022/11/08 11:10:33;;;;;;;2.60;0.90;;;;;;;21.69;40.08;96302.34;2104213;28;20234;-64
2022/11/08 11:11:36;;;;;;;1.95;0.93;;;;;;;22.37;39.50;96302.16;2101494;28;20244;-63
2022/11/08 11:12:38;;;;;;;1.90;1.00;;;;;;;22.17;40.01;96299.63;2104801;28;20724;-63
2022/11/08 11:13:39;;;;;;;3.15;0.80;;;;;;;22.70;39.10;96294.50;2104514;28;20287;-64
2022/11/08 11:14:41;;;;;;;4.45;1.40;;;;;;;22.64;37.81;96277.34;2102925;28;20196;-63
2022/11/08 11:16:04;;;;;;;3.83;1.10;;;;;;;22.10;38.41;96298.53;2103485;28;20286;-63
2022/11/08 11:17:16;;;;;;;2.03;1.20;;;;;;;21.16;40.57;96290.47;2101761;28;20210;-63
2022/11/08 11:18:29;;;;;;;2.70;1.20;;;;;;;21.03;40.76;96304.06;2101755;28;20199;-63
2022/11/08 11:19:30;;;;;;;3.15;1.10;;;;;;;21.97;39.01;96298.88;2103350;28;20286;-63
2022/11/08 11:20:32;;;;;;;2.40;1.30;;;;;;;21.49;39.30;96293.59;2103947;28;20340;-63
2022/11/08 11:21:37;;;;;;;6.65;1.73;;;;;;;20.99;41.19;96291.22;2102748;28;20682;-63
2022/11/08 11:22:44;;;;;;;2.63;1.20;;;;;;;20.70;41.89;96279.66;2104265;28;20235;-63
2022/11/08 11:23:51;;;;;;;5.10;1.23;;;;;;;20.65;41.45;96292.47;2104782;28;20718;-63
2022/11/08 11:24:54;;;;;;;4.95;1.20;;;;;;;19.74;43.51;96281.97;2102634;28;20291;-64
2022/11/08 11:25:55;;;;;;;3.55;1.25;;;;;;;17.92;46.09;96287.34;2104736;28;20282;-64
2022/11/08 11:26:56;;;;;;;4.40;1.20;;;;;;;18.69;45.87;96291.69;2101144;28;20784;-64
2022/11/08 11:27:59;;;;;;;1.58;0.90;;;;;;;18.71;45.07;96279.16;2103584;28;20709;-64
2022/11/08 11:29:13;;;;;;;2.42;0.95;;;;;;;18.38;46.70;96294.19;2103069;28;20222;-64
2022/11/08 11:30:31;;;;;;;7.97;1.45;;;;;;;18.32;46.54;96292.09;2101024;28;20780;-63
2022/11/08 11:31:36;;;;;;;3.72;1.25;;;;;;;17.97;47.17;96292.25;2103167;28;20309;-63
2022/11/08 11:32:38;;;;;;;4.55;1.33;;;;;;;18.26;46.77;96289.94;2103237;28;20199;-64
2022/11/08 11:33:45;;;;;;;3.95;1.30;;;;;;;18.26;47.11;96288.13;2103694;28;20198;-64
2022/11/08 11:34:53;;;;;;;3.17;1.27;;;;;;;17.92;47.11;96284.69;2102008;28;20439;-64
2022/11/08 11:36:03;;;;;;;4.63;1.20;;;;;;;18.16;47.62;96287.19;2102416;28;20223;-64
2022/11/08 11:37:09;;;;;;;2.58;1.48;;;;;;;19.01;46.28;96279.41;2102406;28;20709;-64
2022/11/08 11:38:26;;;;;;;2.80;1.30;;;;;;;20.37;43.42;96279.06;2103949;28;20202;-63
2022/11/08 11:39:48;;;;;;;5.05;1.25;;;;;;;19.48;45.46;96277.13;2103103;28;20736;-64
2022/11/08 11:40:54;;;;;;;3.25;1.35;;;;;;;18.44;46.25;96277.84;2104493;28;20198;-66
2022/11/08 11:42:11;;;;;;;3.90;1.30;;;;;;;18.15;47.22;96279.41;2103963;28;20375;-64
2022/11/08 11:44:02;;;;;;;4.45;1.85;;;;;;;18.12;47.69;96264.63;2102593;28;20231;-64
2022/11/08 11:45:17;;;;;;;4.93;1.02;;;;;;;18.23;46.41;96280.47;2104729;28;20230;-64
2022/11/08 11:46:33;;;;;;;2.67;1.20;;;;;;;17.61;47.44;96282.69;2102796;28;20285;-64
2022/11/08 11:47:49;;;;;;;4.80;1.40;;;;;;;17.54;47.49;96270.09;2102791;28;20195;-64
2022/11/08 11:48:58;;;;;;;2.38;1.05;;;;;;;17.20;48.02;96272.72;2103039;28;20670;-63
2022/11/08 11:50:11;;;;;;;2.40;0.90;;;;;;;16.95;48.73;96283.38;2103236;28;20281;-64
2022/11/08 11:51:13;;;;;;;5.10;1.20;;;;;;;16.87;49.29;96283.06;2105860;28;20230;-64
2022/11/08 11:52:18;;;;;;;4.75;1.17;;;;;;;16.74;49.47;96288.44;2105914;28;20201;-64
2022/11/08 11:53:24;;;;;;;3.05;1.00;;;;;;;16.64;49.42;96276.91;2104948;28;20199;-64
2022/11/08 11:54:33;;;;;;;3.83;1.13;;;;;;;16.63;49.88;96278.72;2102607;28;20813;-64
2022/11/08 11:55:48;;;;;;;2.22;1.00;;;;;;;16.77;50.11;96284.72;2103330;28;20240;-64
2022/11/08 11:57:01;;;;;;;3.38;1.13;;;;;;;16.37;49.59;96272.72;2102935;28;20322;-63
2022/11/08 11:58:45;;;;;;;3.05;1.05;;;;;;;16.40;50.77;96284.84;2105124;28;20234;-64
2022/11/08 12:00:08;;;;;;;4.50;1.10;;;;;;;16.42;50.51;96280.31;2105582;28;20753;-64
2022/11/08 12:01:16;;;;;;;3.80;1.20;;;;;;;16.36;49.86;96283.41;2103222;28;20206;-64
2022/11/08 12:02:39;;;;;;;2.25;1.00;;;;;;;16.48;49.78;96280.69;2102863;28;20253;-64
2022/11/08 12:04:24;;;;;;;7.97;1.40;;;;;;;16.80;50.02;96274.78;2102215;28;20227;-64
2022/11/08 12:05:44;;;;;;;3.55;1.30;;;;;;;16.73;50.12;96278.84;2085424;28;20299;-64
2022/11/08 12:07:10;;;;;;;2.00;1.20;;;;;;;16.81;50.38;96281.75;2084944;28;20246;-64
2022/11/08 12:08:37;;;;;;;4.85;1.10;;;;;;;16.60;50.77;96271.00;2106930;28;20832;-64
2022/11/08 12:10:21;;;;;;;3.05;1.45;;;;;;;16.66;51.23;96272.38;2108600;28;20237;-64
2022/11/08 12:12:16;;;;;;;6.68;1.75;;;;;;;16.67;51.26;96273.19;2100723;28;20214;-64
2022/11/08 12:13:29;;;;;;;2.63;1.38;;;;;;;16.44;50.82;96271.34;2078799;28;20193;-64
2022/11/08 12:14:50;;;;;;;4.25;1.67;;;;;;;16.31;50.67;96267.91;2078863;28;20651;-64
2022/11/08 12:15:56;;;;;;;2.45;1.20;;;;;;;16.26;51.66;96270.03;2078860;28;20238;-63
2022/11/08 12:17:22;;;;;;;6.47;1.30;;;;;;;16.22;51.72;96261.53;2077965;28;20307;-64
2022/11/08 12:18:48;;;;;;;1.95;1.02;;;;;;;16.03;51.96;96263.84;2078503;28;20193;-64
2022/11/08 12:20:17;;;;;;;2.97;1.17;;;;;;;15.83;51.43;96266.09;2078652;28;20353;-64
2022/11/08 12:21:44;;;;;;;4.53;1.25;;;;;;;15.91;51.84;96274.31;2064594;28;20218;-63
2022/11/08 12:23:07;;;;;;;2.72;1.20;;;;;;;15.77;51.51;96275.25;2078634;28;20232;-63
2022/11/08 12:24:26;;;;;;;3.13;1.67;;;;;;;15.67;52.01;96266.34;2078761;28;20232;-61
2022/11/08 12:25:48;;;;;;;3.25;1.50;;;;;;;15.67;51.88;96258.44;2078628;28;20232;-63
2022/11/08 12:27:00;;;;;;;6.80;1.65;;;;;;;15.72;51.69;96266.00;2078155;28;20391;-62
2022/11/08 12:28:22;;;;;;;6.07;1.65;;;;;;;15.74;51.98;96264.94;2078564;28;20196;-62
2022/11/08 12:29:58;;;;;;;2.63;1.10;;;;;;;15.63;52.06;96255.19;2078611;28;20675;-62
2022/11/08 12:31:08;;;;;;;7.28;1.70;;;;;;;15.67;52.20;96263.72;2078604;28;20258;-62
2022/11/08 12:32:31;;;;;;;2.15;1.23;;;;;;;15.55;51.63;96264.56;2077227;28;20260;-61
2022/11/08 12:33:41;;;;;;;4.45;1.17;;;;;;;15.48;52.25;96265.00;2078532;28;20247;-62
2022/11/08 12:34:57;;;;;;;2.65;1.42;;;;;;;15.55;52.61;96259.31;2078494;28;20231;-62
2022/11/08 12:36:17;;;;;;;2.40;1.10;;;;;;;15.53;53.17;96264.69;2078567;28;20234;-62
2022/11/08 12:37:49;;;;;;;3.17;1.08;;;;;;;15.49;52.98;96260.56;2078438;28;20299;-63
2022/11/08 12:38:53;;;;;;;1.73;0.95;;;;;;;15.60;53.11;96263.28;2078374;28;20220;-62
2022/11/08 12:39:59;;;;;;;3.58;1.10;;;;;;;15.63;53.09;96263.09;2078521;28;20232;-62
2022/11/08 12:41:22;;;;;;;4.70;1.00;;;;;;;15.62;52.85;96257.94;2078591;28;20240;-62
2022/11/08 12:42:55;;;;;;;13.15;1.10;;;;;;;15.65;53.33;96257.72;2078343;28;20216;-62
2022/11/08 12:44:16;;;;;;;2.35;0.98;;;;;;;15.72;53.02;96260.72;2078382;28;20679;-62
2022/11/08 12:45:56;;;;;;;2.13;1.17;;;;;;;15.78;53.60;96253.25;2097520;28;20295;-63
2022/11/08 12:47:09;;;;;;;3.60;1.10;;;;;;;15.83;53.57;96250.31;2102006;28;20227;-62
2022/11/08 12:48:24;;;;;;;2.10;1.05;;;;;;;15.78;53.38;96253.25;2103427;28;20282;-63
2022/11/08 12:49:50;;;;;;;8.30;1.35;;;;;;;15.66;53.22;96254.97;2103685;28;20306;-62
2022/11/08 12:51:16;;;;;;;6.03;1.23;;;;;;;15.72;52.44;96255.47;2100277;28;20230;-62
2022/11/08 12:52:24;;;;;;;2.00;0.98;;;;;;;15.73;53.37;96252.75;2103470;28;20299;-62
2022/11/08 12:53:37;;;;;;;3.40;1.08;;;;;;;15.71;53.16;96257.28;2101790;28;20193;-62
2022/11/08 12:54:47;;;;;;;3.17;1.10;;;;;;;15.57;53.18;96255.63;2101321;28;20666;-62
2022/11/08 12:55:53;;;;;;;4.00;1.10;;;;;;;15.66;53.93;96252.31;2103049;28;20292;-62
2022/11/08 12:57:00;;;;;;;2.30;1.40;;;;;;;15.59;53.54;96255.50;2101967;28;20242;-62
2022/11/08 12:58:37;;;;;;;2.80;0.98;;;;;;;15.72;53.01;96250.19;2103544;28;20325;-63
2022/11/08 12:59:43;;;;;;;2.30;1.10;;;;;;;15.78;52.97;96255.03;2103599;28;20237;-62
2022/11/08 13:00:47;;;;;;;3.13;1.15;;;;;;;15.83;53.02;96251.16;2103760;28;20819;-62
2022/11/08 13:02:16;;;;;;;3.30;1.30;;;;;;;15.94;53.38;96246.91;2103761;28;20212;-62
2022/11/08 13:03:57;;;;;;;3.95;1.13;;;;;;;15.75;53.74;96231.56;2102431;28;20228;-62
2022/11/08 13:05:24;;;;;;;32.15;18.75;;;;;;;15.89;53.86;96247.22;2103995;28;20206;-67
2022/11/08 13:06:42;;;;;;;4.03;1.35;;;;;;;15.71;53.24;96228.31;2102315;28;20282;-63
2022/11/08 13:07:56;;;;;;;2.45;1.38;;;;;;;15.71;53.77;96253.81;2103706;28;20234;-64
2022/11/08 13:09:26;;;;;;;2.25;1.20;;;;;;;15.68;53.86;96244.34;2102104;28;20682;-63
2022/11/08 13:10:32;;;;;;;9.15;1.25;;;;;;;15.65;53.45;96247.19;2094168;28;20244;-64
2022/11/08 13:11:55;;;;;;;2.75;1.10;;;;;;;15.61;54.05;96238.66;2101338;28;20301;-64
2022/11/08 13:13:19;;;;;;;4.53;1.00;;;;;;;15.65;53.28;96245.38;2101421;28;20282;-64
2022/11/08 13:14:22;;;;;;;2.95;1.15;;;;;;;15.66;53.59;96236.53;2103294;28;20241;-63
2022/11/08 13:15:25;;;;;;;4.32;1.20;;;;;;;15.59;53.43;96226.56;2100799;28;20298;-64
2022/11/08 13:16:32;;;;;;;2.65;1.20;;;;;;;15.71;53.16;96249.38;2101553;28;20234;-64
2022/11/08 13:17:34;;;;;;;5.88;1.30;;;;;;;15.62;53.67;96250.03;2103493;28;20711;-64
2022/11/08 13:18:50;;;;;;;3.00;1.23;;;;;;;15.61;54.34;96245.72;2102847;28;20222;-64
2022/11/08 13:19:52;;;;;;;2.70;1.08;;;;;;;15.64;53.86;96243.72;2103533;28;21070;-64